sensor_id;sensor_type;location;lat;lon;timestamp;temperature;humidity
25718;DHT22;13574;52.040;5.692;2023-05-19T00:00:55;13.90;94.90
25718;DHT22;13574;52.040;5.692;2023-05-19T00:03:22;14.00;94.90
25718;DHT22;13574;52.040;5.692;2023-05-19T00:05:48;14.10;94.70
25718;DHT22;13574;52.040;5.692;2023-05-19T00:08:18;13.60;95.20
25718;DHT22;13574;52.040;5.692;2023-05-19T00:10:45;13.40;95.80
25718;DHT22;13574;52.040;5.692;2023-05-19T00:13:11;13.60;95.50
25718;DHT22;13574;52.040;5.692;2023-05-19T00:15:37;13.70;95.50
25718;DHT22;13574;52.040;5.692;2023-05-19T00:18:03;13.70;95.50
25718;DHT22;13574;52.040;5.692;2023-05-19T00:20:29;13.60;95.70
25718;DHT22;13574;52.040;5.692;2023-05-19T00:22:54;13.40;95.90
25718;DHT22;13574;52.040;5.692;2023-05-19T00:25:20;13.40;95.80
25718;DHT22;13574;52.040;5.692;2023-05-19T00:27:46;13.60;95.60
25718;DHT22;13574;52.040;5.692;2023-05-19T00:30:12;13.40;95.90
25718;DHT22;13574;52.040;5.692;2023-05-19T00:32:37;13.30;95.90
25718;DHT22;13574;52.040;5.692;2023-05-19T00:35:03;13.30;96.00
25718;DHT22;13574;52.040;5.692;2023-05-19T00:37:29;13.20;96.20
25718;DHT22;13574;52.040;5.692;2023-05-19T00:39:55;12.70;97.20
25718;DHT22;13574;52.040;5.692;2023-05-19T00:42:21;12.70;97.10
25718;DHT22;13574;52.040;5.692;2023-05-19T00:44:47;13.00;96.90
25718;DHT22;13574;52.040;5.692;2023-05-19T00:47:12;13.20;96.60
25718;DHT22;13574;52.040;5.692;2023-05-19T00:49:38;13.30;96.40
25718;DHT22;13574;52.040;5.692;2023-05-19T00:52:05;13.40;96.20
25718;DHT22;13574;52.040;5.692;2023-05-19T00:54:32;13.60;96.10
25718;DHT22;13574;52.040;5.692;2023-05-19T00:56:59;13.60;96.00
25718;DHT22;13574;52.040;5.692;2023-05-19T00:59:25;13.50;96.10
25718;DHT22;13574;52.040;5.692;2023-05-19T01:01:51;13.50;95.90
25718;DHT22;13574;52.040;5.692;2023-05-19T01:04:20;13.30;96.00
25718;DHT22;13574;52.040;5.692;2023-05-19T01:06:47;13.30;96.50
25718;DHT22;13574;52.040;5.692;2023-05-19T01:09:15;13.30;96.10
25718;DHT22;13574;52.040;5.692;2023-05-19T01:11:41;13.50;96.10
25718;DHT22;13574;52.040;5.692;2023-05-19T01:14:06;13.60;95.80
25718;DHT22;13574;52.040;5.692;2023-05-19T01:19:21;13.50;95.90
25718;DHT22;13574;52.040;5.692;2023-05-19T01:33:05;13.50;95.90
25718;DHT22;13574;52.040;5.692;2023-05-19T01:35:31;13.50;95.90
25718;DHT22;13574;52.040;5.692;2023-05-19T01:38:00;13.50;95.90
25718;DHT22;13574;52.040;5.692;2023-05-19T01:40:27;13.40;95.90
25718;DHT22;13574;52.040;5.692;2023-05-19T01:42:57;13.30;96.20
25718;DHT22;13574;52.040;5.692;2023-05-19T01:45:24;13.20;96.20
25718;DHT22;13574;52.040;5.692;2023-05-19T01:47:53;13.10;96.40
25718;DHT22;13574;52.040;5.692;2023-05-19T01:50:19;13.20;96.40
25718;DHT22;13574;52.040;5.692;2023-05-19T01:52:45;13.20;96.50
25718;DHT22;13574;52.040;5.692;2023-05-19T01:55:11;13.30;96.50
25718;DHT22;13574;52.040;5.692;2023-05-19T01:57:46;13.20;96.40
25718;DHT22;13574;52.040;5.692;2023-05-19T02:00:31;13.30;96.40
25718;DHT22;13574;52.040;5.692;2023-05-19T02:10:57;12.90;96.80
25718;DHT22;13574;52.040;5.692;2023-05-19T02:13:27;12.70;97.00
25718;DHT22;13574;52.040;5.692;2023-05-19T02:15:57;12.50;97.50
25718;DHT22;13574;52.040;5.692;2023-05-19T02:18:27;12.60;97.50
25718;DHT22;13574;52.040;5.692;2023-05-19T02:20:54;12.40;97.70
25718;DHT22;13574;52.040;5.692;2023-05-19T02:23:20;12.10;98.10
25718;DHT22;13574;52.040;5.692;2023-05-19T02:25:45;12.10;98.50
25718;DHT22;13574;52.040;5.692;2023-05-19T02:28:11;12.10;98.40
25718;DHT22;13574;52.040;5.692;2023-05-19T02:30:37;11.90;98.90
25718;DHT22;13574;52.040;5.692;2023-05-19T02:33:02;12.10;98.70
25718;DHT22;13574;52.040;5.692;2023-05-19T02:35:31;12.10;98.60
25718;DHT22;13574;52.040;5.692;2023-05-19T02:37:56;12.20;98.50
25718;DHT22;13574;52.040;5.692;2023-05-19T02:40:23;12.20;98.40
25718;DHT22;13574;52.040;5.692;2023-05-19T02:42:48;12.00;98.80
25718;DHT22;13574;52.040;5.692;2023-05-19T02:45:14;12.20;98.60
25718;DHT22;13574;52.040;5.692;2023-05-19T02:47:40;12.00;98.70
25718;DHT22;13574;52.040;5.692;2023-05-19T02:50:06;12.10;98.80
25718;DHT22;13574;52.040;5.692;2023-05-19T02:52:32;12.00;99.00
25718;DHT22;13574;52.040;5.692;2023-05-19T02:54:58;11.90;99.00
25718;DHT22;13574;52.040;5.692;2023-05-19T02:57:23;11.70;99.50
25718;DHT22;13574;52.040;5.692;2023-05-19T02:59:49;11.90;99.50
25718;DHT22;13574;52.040;5.692;2023-05-19T03:02:15;11.90;99.20
25718;DHT22;13574;52.040;5.692;2023-05-19T03:04:40;12.00;99.30
25718;DHT22;13574;52.040;5.692;2023-05-19T03:07:07;11.70;99.70
25718;DHT22;13574;52.040;5.692;2023-05-19T03:09:38;11.60;99.90
25718;DHT22;13574;52.040;5.692;2023-05-19T03:12:04;11.60;99.90
25718;DHT22;13574;52.040;5.692;2023-05-19T03:14:32;11.90;99.60
25718;DHT22;13574;52.040;5.692;2023-05-19T03:16:58;12.00;99.60
25718;DHT22;13574;52.040;5.692;2023-05-19T03:19:24;12.10;99.10
25718;DHT22;13574;52.040;5.692;2023-05-19T03:21:50;12.00;99.20
25718;DHT22;13574;52.040;5.692;2023-05-19T03:24:16;12.10;99.30
25718;DHT22;13574;52.040;5.692;2023-05-19T03:26:42;12.10;99.30
25718;DHT22;13574;52.040;5.692;2023-05-19T03:29:08;11.90;99.50
25718;DHT22;13574;52.040;5.692;2023-05-19T03:31:33;11.80;99.70
25718;DHT22;13574;52.040;5.692;2023-05-19T03:33:59;11.70;99.90
25718;DHT22;13574;52.040;5.692;2023-05-19T03:36:25;11.70;99.90
25718;DHT22;13574;52.040;5.692;2023-05-19T03:38:56;11.60;99.90
25718;DHT22;13574;52.040;5.692;2023-05-19T03:41:22;11.70;99.90
25718;DHT22;13574;52.040;5.692;2023-05-19T03:43:47;11.80;99.90
25718;DHT22;13574;52.040;5.692;2023-05-19T03:46:13;11.90;99.90
25718;DHT22;13574;52.040;5.692;2023-05-19T03:48:39;11.90;99.90
25718;DHT22;13574;52.040;5.692;2023-05-19T03:51:05;12.00;99.90
25718;DHT22;13574;52.040;5.692;2023-05-19T03:53:31;12.00;99.80
25718;DHT22;13574;52.040;5.692;2023-05-19T03:55:57;12.10;99.90
25718;DHT22;13574;52.040;5.692;2023-05-19T03:58:23;12.10;99.80
25718;DHT22;13574;52.040;5.692;2023-05-19T04:00:49;12.20;99.60
25718;DHT22;13574;52.040;5.692;2023-05-19T04:03:15;12.20;99.70
25718;DHT22;13574;52.040;5.692;2023-05-19T04:05:41;12.20;99.80
25718;DHT22;13574;52.040;5.692;2023-05-19T04:08:06;12.20;99.70
25718;DHT22;13574;52.040;5.692;2023-05-19T04:10:32;12.20;99.70
25718;DHT22;13574;52.040;5.692;2023-05-19T04:12:58;12.30;99.50
25718;DHT22;13574;52.040;5.692;2023-05-19T04:15:23;12.20;99.60
25718;DHT22;13574;52.040;5.692;2023-05-19T04:17:49;12.20;99.60
25718;DHT22;13574;52.040;5.692;2023-05-19T04:20:15;12.10;99.80
25718;DHT22;13574;52.040;5.692;2023-05-19T04:22:40;12.20;99.80
25718;DHT22;13574;52.040;5.692;2023-05-19T04:25:06;12.20;99.90
25718;DHT22;13574;52.040;5.692;2023-05-19T04:27:33;12.20;99.90
25718;DHT22;13574;52.040;5.692;2023-05-19T04:30:03;12.30;99.90
25718;DHT22;13574;52.040;5.692;2023-05-19T04:32:29;12.00;99.90
25718;DHT22;13574;52.040;5.692;2023-05-19T04:34:55;12.00;99.90
25718;DHT22;13574;52.040;5.692;2023-05-19T04:37:23;11.90;99.90
25718;DHT22;13574;52.040;5.692;2023-05-19T04:39:50;11.80;99.90
25718;DHT22;13574;52.040;5.692;2023-05-19T04:42:16;11.90;99.90
25718;DHT22;13574;52.040;5.692;2023-05-19T04:44:45;11.70;99.90
25718;DHT22;13574;52.040;5.692;2023-05-19T04:47:13;11.90;99.90
25718;DHT22;13574;52.040;5.692;2023-05-19T04:49:40;12.00;99.90
25718;DHT22;13574;52.040;5.692;2023-05-19T04:52:07;12.20;99.90
25718;DHT22;13574;52.040;5.692;2023-05-19T04:54:35;12.50;99.90
25718;DHT22;13574;52.040;5.692;2023-05-19T04:57:02;12.30;99.90
25718;DHT22;13574;52.040;5.692;2023-05-19T04:59:28;12.70;99.90
25718;DHT22;13574;52.040;5.692;2023-05-19T05:01:54;12.90;99.90
25718;DHT22;13574;52.040;5.692;2023-05-19T05:04:21;13.10;99.90
25718;DHT22;13574;52.040;5.692;2023-05-19T05:06:46;13.20;99.60
25718;DHT22;13574;52.040;5.692;2023-05-19T05:09:14;13.50;99.50
25718;DHT22;13574;52.040;5.692;2023-05-19T05:11:40;13.40;99.50
25718;DHT22;13574;52.040;5.692;2023-05-19T05:14:06;13.50;99.30
25718;DHT22;13574;52.040;5.692;2023-05-19T05:16:32;13.30;99.40
25718;DHT22;13574;52.040;5.692;2023-05-19T05:18:59;13.40;99.60
25718;DHT22;13574;52.040;5.692;2023-05-19T05:21:25;13.20;99.60
25718;DHT22;13574;52.040;5.692;2023-05-19T05:23:52;13.40;99.60
25718;DHT22;13574;52.040;5.692;2023-05-19T05:26:19;13.40;99.60
25718;DHT22;13574;52.040;5.692;2023-05-19T05:28:48;13.40;99.90
25718;DHT22;13574;52.040;5.692;2023-05-19T05:31:14;13.40;99.80
25718;DHT22;13574;52.040;5.692;2023-05-19T05:33:40;13.70;99.60
25718;DHT22;13574;52.040;5.692;2023-05-19T05:36:06;13.50;99.70
25718;DHT22;13574;52.040;5.692;2023-05-19T05:38:31;13.60;99.80
25718;DHT22;13574;52.040;5.692;2023-05-19T05:40:57;13.70;99.80
25718;DHT22;13574;52.040;5.692;2023-05-19T05:43:23;13.70;99.60
25718;DHT22;13574;52.040;5.692;2023-05-19T05:45:48;13.80;99.50
25718;DHT22;13574;52.040;5.692;2023-05-19T05:48:14;13.90;99.90
25718;DHT22;13574;52.040;5.692;2023-05-19T05:50:42;14.20;99.30
25718;DHT22;13574;52.040;5.692;2023-05-19T05:53:09;14.60;98.90
25718;DHT22;13574;52.040;5.692;2023-05-19T05:55:39;14.80;98.20
25718;DHT22;13574;52.040;5.692;2023-05-19T05:58:05;14.60;98.20
25718;DHT22;13574;52.040;5.692;2023-05-19T06:00:30;14.70;98.40
25718;DHT22;13574;52.040;5.692;2023-05-19T06:02:56;15.00;97.90
25718;DHT22;13574;52.040;5.692;2023-05-19T06:05:23;15.10;97.70
25718;DHT22;13574;52.040;5.692;2023-05-19T06:07:49;15.10;97.90
25718;DHT22;13574;52.040;5.692;2023-05-19T06:10:15;15.10;97.50
25718;DHT22;13574;52.040;5.692;2023-05-19T06:12:41;15.10;97.50
25718;DHT22;13574;52.040;5.692;2023-05-19T06:15:08;15.20;97.40
25718;DHT22;13574;52.040;5.692;2023-05-19T06:17:34;15.40;97.10
25718;DHT22;13574;52.040;5.692;2023-05-19T06:20:01;15.80;96.90
25718;DHT22;13574;52.040;5.692;2023-05-19T06:22:26;15.70;96.50
25718;DHT22;13574;52.040;5.692;2023-05-19T06:24:53;15.90;95.60
25718;DHT22;13574;52.040;5.692;2023-05-19T06:27:18;15.80;95.70
25718;DHT22;13574;52.040;5.692;2023-05-19T06:29:44;15.70;96.00
25718;DHT22;13574;52.040;5.692;2023-05-19T06:32:10;16.10;95.60
25718;DHT22;13574;52.040;5.692;2023-05-19T06:34:35;16.50;95.40
25718;DHT22;13574;52.040;5.692;2023-05-19T06:37:02;17.10;94.80
25718;DHT22;13574;52.040;5.692;2023-05-19T06:39:28;17.50;93.40
25718;DHT22;13574;52.040;5.692;2023-05-19T06:41:54;18.10;92.70
25718;DHT22;13574;52.040;5.692;2023-05-19T06:44:19;18.50;92.40
25718;DHT22;13574;52.040;5.692;2023-05-19T06:46:45;18.80;92.40
25718;DHT22;13574;52.040;5.692;2023-05-19T06:49:11;18.60;91.40
25718;DHT22;13574;52.040;5.692;2023-05-19T06:51:36;18.50;91.60
25718;DHT22;13574;52.040;5.692;2023-05-19T06:54:02;19.30;91.20
25718;DHT22;13574;52.040;5.692;2023-05-19T06:56:28;19.90;90.70
25718;DHT22;13574;52.040;5.692;2023-05-19T06:58:53;20.70;88.90
25718;DHT22;13574;52.040;5.692;2023-05-19T07:01:19;22.40;85.90
25718;DHT22;13574;52.040;5.692;2023-05-19T07:03:45;24.50;80.70
25718;DHT22;13574;52.040;5.692;2023-05-19T07:06:11;26.90;76.30
25718;DHT22;13574;52.040;5.692;2023-05-19T07:08:37;29.60;72.70
25718;DHT22;13574;52.040;5.692;2023-05-19T07:11:03;29.50;70.00
25718;DHT22;13574;52.040;5.692;2023-05-19T07:13:28;30.40;65.60
25718;DHT22;13574;52.040;5.692;2023-05-19T07:15:54;30.00;64.80
25718;DHT22;13574;52.040;5.692;2023-05-19T07:18:20;30.70;66.10
25718;DHT22;13574;52.040;5.692;2023-05-19T07:20:46;32.00;64.10
25718;DHT22;13574;52.040;5.692;2023-05-19T07:23:12;32.80;60.60
25718;DHT22;13574;52.040;5.692;2023-05-19T07:25:38;32.60;59.40
25718;DHT22;13574;52.040;5.692;2023-05-19T07:28:03;32.90;59.10
25718;DHT22;13574;52.040;5.692;2023-05-19T07:30:29;32.10;58.40
25718;DHT22;13574;52.040;5.692;2023-05-19T07:32:55;32.20;58.90
25718;DHT22;13574;52.040;5.692;2023-05-19T07:35:21;31.70;59.00
25718;DHT22;13574;52.040;5.692;2023-05-19T07:37:48;31.90;59.10
25718;DHT22;13574;52.040;5.692;2023-05-19T07:40:13;31.30;59.40
25718;DHT22;13574;52.040;5.692;2023-05-19T07:42:48;30.60;60.00
25718;DHT22;13574;52.040;5.692;2023-05-19T07:45:14;30.80;60.90
25718;DHT22;13574;52.040;5.692;2023-05-19T07:47:40;31.40;59.80
25718;DHT22;13574;52.040;5.692;2023-05-19T07:50:06;31.80;59.60
25718;DHT22;13574;52.040;5.692;2023-05-19T07:52:32;31.50;58.70
25718;DHT22;13574;52.040;5.692;2023-05-19T07:54:59;30.70;59.30
25718;DHT22;13574;52.040;5.692;2023-05-19T07:57:25;29.90;60.20
25718;DHT22;13574;52.040;5.692;2023-05-19T07:59:51;29.20;60.20
25718;DHT22;13574;52.040;5.692;2023-05-19T08:02:16;28.20;61.60
25718;DHT22;13574;52.040;5.692;2023-05-19T08:04:42;28.00;62.40
25718;DHT22;13574;52.040;5.692;2023-05-19T08:07:18;28.40;62.90
25718;DHT22;13574;52.040;5.692;2023-05-19T08:13:29;30.40;60.40
25718;DHT22;13574;52.040;5.692;2023-05-19T08:15:54;31.50;59.80
25718;DHT22;13574;52.040;5.692;2023-05-19T08:18:24;32.00;59.90
25718;DHT22;13574;52.040;5.692;2023-05-19T08:20:50;33.00;57.60
25718;DHT22;13574;52.040;5.692;2023-05-19T08:23:19;34.00;57.10
25718;DHT22;13574;52.040;5.692;2023-05-19T08:25:54;33.80;56.40
25718;DHT22;13574;52.040;5.692;2023-05-19T08:28:22;35.10;57.20
25718;DHT22;13574;52.040;5.692;2023-05-19T08:30:52;34.70;54.40
25718;DHT22;13574;52.040;5.692;2023-05-19T08:33:17;35.30;54.80
25718;DHT22;13574;52.040;5.692;2023-05-19T08:35:45;34.60;55.00
25718;DHT22;13574;52.040;5.692;2023-05-19T08:38:15;34.60;54.80
25718;DHT22;13574;52.040;5.692;2023-05-19T08:40:42;34.00;54.20
25718;DHT22;13574;52.040;5.692;2023-05-19T08:43:07;35.30;54.50
25718;DHT22;13574;52.040;5.692;2023-05-19T08:45:34;34.40;54.50
25718;DHT22;13574;52.040;5.692;2023-05-19T08:48:03;34.10;54.10
25718;DHT22;13574;52.040;5.692;2023-05-19T08:50:34;33.80;55.60
25718;DHT22;13574;52.040;5.692;2023-05-19T08:53:12;34.60;53.90
25718;DHT22;13574;52.040;5.692;2023-05-19T08:56:01;35.10;54.00
25718;DHT22;13574;52.040;5.692;2023-05-19T08:58:34;34.40;52.80
25718;DHT22;13574;52.040;5.692;2023-05-19T09:01:01;35.00;52.20
25718;DHT22;13574;52.040;5.692;2023-05-19T09:03:28;35.20;52.50
25718;DHT22;13574;52.040;5.692;2023-05-19T09:05:54;33.90;52.50
25718;DHT22;13574;52.040;5.692;2023-05-19T09:08:21;33.60;52.70
25718;DHT22;13574;52.040;5.692;2023-05-19T09:10:57;33.10;53.50
25718;DHT22;13574;52.040;5.692;2023-05-19T09:13:23;32.50;54.30
25718;DHT22;13574;52.040;5.692;2023-05-19T09:15:49;32.30;55.20
25718;DHT22;13574;52.040;5.692;2023-05-19T09:18:16;33.40;54.70
25718;DHT22;13574;52.040;5.692;2023-05-19T09:20:43;33.30;53.80
25718;DHT22;13574;52.040;5.692;2023-05-19T09:23:16;32.60;56.40
25718;DHT22;13574;52.040;5.692;2023-05-19T09:28:12;34.90;54.00
25718;DHT22;13574;52.040;5.692;2023-05-19T09:30:38;35.60;54.70
25718;DHT22;13574;52.040;5.692;2023-05-19T09:33:04;34.30;54.30
25718;DHT22;13574;52.040;5.692;2023-05-19T09:35:34;33.80;53.50
25718;DHT22;13574;52.040;5.692;2023-05-19T09:38:00;33.40;54.00
25718;DHT22;13574;52.040;5.692;2023-05-19T09:40:29;32.10;55.20
25718;DHT22;13574;52.040;5.692;2023-05-19T09:42:56;31.20;56.00
25718;DHT22;13574;52.040;5.692;2023-05-19T09:45:22;30.70;56.50
25718;DHT22;13574;52.040;5.692;2023-05-19T09:47:47;29.80;56.90
25718;DHT22;13574;52.040;5.692;2023-05-19T09:50:13;29.10;59.80
25718;DHT22;13574;52.040;5.692;2023-05-19T09:52:42;27.50;58.40
25718;DHT22;13574;52.040;5.692;2023-05-19T09:55:09;27.10;59.90
25718;DHT22;13574;52.040;5.692;2023-05-19T09:57:36;26.30;60.60
25718;DHT22;13574;52.040;5.692;2023-05-19T10:00:08;26.60;60.10
25718;DHT22;13574;52.040;5.692;2023-05-19T10:02:43;26.70;60.20
25718;DHT22;13574;52.040;5.692;2023-05-19T10:05:13;27.10;58.60
25718;DHT22;13574;52.040;5.692;2023-05-19T10:07:51;27.10;59.60
25718;DHT22;13574;52.040;5.692;2023-05-19T10:10:17;26.70;59.70
25718;DHT22;13574;52.040;5.692;2023-05-19T10:12:47;26.60;59.70
25718;DHT22;13574;52.040;5.692;2023-05-19T10:15:14;27.20;60.40
25718;DHT22;13574;52.040;5.692;2023-05-19T10:17:41;27.80;59.10
25718;DHT22;13574;52.040;5.692;2023-05-19T10:20:09;27.20;58.90
25718;DHT22;13574;52.040;5.692;2023-05-19T10:22:37;28.10;57.90
25718;DHT22;13574;52.040;5.692;2023-05-19T10:25:04;28.60;58.30
25718;DHT22;13574;52.040;5.692;2023-05-19T10:27:31;28.90;57.70
25718;DHT22;13574;52.040;5.692;2023-05-19T10:30:07;30.00;56.90
25718;DHT22;13574;52.040;5.692;2023-05-19T10:32:40;31.10;55.90
25718;DHT22;13574;52.040;5.692;2023-05-19T10:40:32;31.00;54.50
25718;DHT22;13574;52.040;5.692;2023-05-19T10:45:52;31.80;52.80
25718;DHT22;13574;52.040;5.692;2023-05-19T10:48:19;31.70;53.60
25718;DHT22;13574;52.040;5.692;2023-05-19T10:50:46;29.90;54.80
25718;DHT22;13574;52.040;5.692;2023-05-19T10:53:16;30.00;55.80
25718;DHT22;13574;52.040;5.692;2023-05-19T10:55:46;28.50;55.90
25718;DHT22;13574;52.040;5.692;2023-05-19T10:58:14;26.90;57.60
25718;DHT22;13574;52.040;5.692;2023-05-19T11:00:40;26.60;59.30
25718;DHT22;13574;52.040;5.692;2023-05-19T11:03:15;26.30;60.50
25718;DHT22;13574;52.040;5.692;2023-05-19T11:05:42;26.60;60.30
25718;DHT22;13574;52.040;5.692;2023-05-19T11:08:14;26.90;59.90
25718;DHT22;13574;52.040;5.692;2023-05-19T11:10:44;26.80;58.10
25718;DHT22;13574;52.040;5.692;2023-05-19T11:13:18;26.40;60.40
25718;DHT22;13574;52.040;5.692;2023-05-19T11:15:45;25.60;60.60
25718;DHT22;13574;52.040;5.692;2023-05-19T11:18:13;25.70;63.10
25718;DHT22;13574;52.040;5.692;2023-05-19T11:20:40;25.70;61.90
25718;DHT22;13574;52.040;5.692;2023-05-19T11:23:08;25.50;61.60
25718;DHT22;13574;52.040;5.692;2023-05-19T11:25:50;23.90;64.50
25718;DHT22;13574;52.040;5.692;2023-05-19T11:28:19;23.90;65.70
25718;DHT22;13574;52.040;5.692;2023-05-19T11:30:46;24.90;63.20
25718;DHT22;13574;52.040;5.692;2023-05-19T11:33:14;25.20;61.90
25718;DHT22;13574;52.040;5.692;2023-05-19T11:35:45;25.40;62.00
25718;DHT22;13574;52.040;5.692;2023-05-19T11:38:12;25.90;61.80
25718;DHT22;13574;52.040;5.692;2023-05-19T11:40:39;26.40;61.10
25718;DHT22;13574;52.040;5.692;2023-05-19T11:43:12;26.20;60.80
25718;DHT22;13574;52.040;5.692;2023-05-19T11:45:38;26.60;60.10
25718;DHT22;13574;52.040;5.692;2023-05-19T11:48:04;26.70;60.00
25718;DHT22;13574;52.040;5.692;2023-05-19T11:50:31;26.80;60.50
25718;DHT22;13574;52.040;5.692;2023-05-19T11:52:59;26.40;60.00
25718;DHT22;13574;52.040;5.692;2023-05-19T11:55:25;25.70;60.00
25718;DHT22;13574;52.040;5.692;2023-05-19T12:00:21;24.90;62.40
25718;DHT22;13574;52.040;5.692;2023-05-19T12:02:47;25.00;62.10
25718;DHT22;13574;52.040;5.692;2023-05-19T12:05:23;24.80;63.00
25718;DHT22;13574;52.040;5.692;2023-05-19T12:07:50;24.60;64.10
25718;DHT22;13574;52.040;5.692;2023-05-19T12:10:26;24.10;64.60
25718;DHT22;13574;52.040;5.692;2023-05-19T12:12:53;23.00;67.40
25718;DHT22;13574;52.040;5.692;2023-05-19T12:15:23;23.00;69.00
25718;DHT22;13574;52.040;5.692;2023-05-19T12:17:49;22.80;68.20
25718;DHT22;13574;52.040;5.692;2023-05-19T12:20:16;23.00;68.90
25718;DHT22;13574;52.040;5.692;2023-05-19T12:22:43;23.10;68.30
25718;DHT22;13574;52.040;5.692;2023-05-19T12:25:08;23.40;67.00
25718;DHT22;13574;52.040;5.692;2023-05-19T12:27:35;23.00;68.10
25718;DHT22;13574;52.040;5.692;2023-05-19T12:30:04;22.80;69.30
25718;DHT22;13574;52.040;5.692;2023-05-19T12:32:32;22.70;68.10
25718;DHT22;13574;52.040;5.692;2023-05-19T12:35:02;22.40;67.80
25718;DHT22;13574;52.040;5.692;2023-05-19T12:37:28;22.60;67.70
25718;DHT22;13574;52.040;5.692;2023-05-19T12:39:55;22.50;68.90
25718;DHT22;13574;52.040;5.692;2023-05-19T12:42:22;22.20;68.60
25718;DHT22;13574;52.040;5.692;2023-05-19T12:44:52;21.60;69.60
25718;DHT22;13574;52.040;5.692;2023-05-19T12:47:19;22.20;70.00
25718;DHT22;13574;52.040;5.692;2023-05-19T12:50:07;22.70;69.30
25718;DHT22;13574;52.040;5.692;2023-05-19T12:52:44;22.40;67.40
25718;DHT22;13574;52.040;5.692;2023-05-19T12:55:10;22.10;67.80
25718;DHT22;13574;52.040;5.692;2023-05-19T12:57:42;22.20;68.40
25718;DHT22;13574;52.040;5.692;2023-05-19T13:00:19;22.20;68.40
25718;DHT22;13574;52.040;5.692;2023-05-19T13:03:07;21.70;67.60
25718;DHT22;13574;52.040;5.692;2023-05-19T13:05:36;22.10;68.70
25718;DHT22;13574;52.040;5.692;2023-05-19T13:08:07;22.40;67.00
25718;DHT22;13574;52.040;5.692;2023-05-19T13:10:34;22.60;67.70
25718;DHT22;13574;52.040;5.692;2023-05-19T13:13:00;22.80;68.50
25718;DHT22;13574;52.040;5.692;2023-05-19T13:15:27;23.00;68.50
25718;DHT22;13574;52.040;5.692;2023-05-19T13:17:56;23.10;67.30
25718;DHT22;13574;52.040;5.692;2023-05-19T13:20:22;23.10;68.60
25718;DHT22;13574;52.040;5.692;2023-05-19T13:22:48;23.40;67.90
25718;DHT22;13574;52.040;5.692;2023-05-19T13:25:15;23.20;67.40
25718;DHT22;13574;52.040;5.692;2023-05-19T13:27:42;23.30;67.60
25718;DHT22;13574;52.040;5.692;2023-05-19T13:30:08;22.60;67.60
25718;DHT22;13574;52.040;5.692;2023-05-19T13:32:34;22.20;67.40
25718;DHT22;13574;52.040;5.692;2023-05-19T13:35:00;22.50;68.00
25718;DHT22;13574;52.040;5.692;2023-05-19T13:37:26;22.70;68.50
25718;DHT22;13574;52.040;5.692;2023-05-19T13:39:53;22.90;68.80
25718;DHT22;13574;52.040;5.692;2023-05-19T13:42:18;22.80;69.10
25718;DHT22;13574;52.040;5.692;2023-05-19T13:44:45;22.40;69.90
25718;DHT22;13574;52.040;5.692;2023-05-19T13:47:11;22.50;69.20
25718;DHT22;13574;52.040;5.692;2023-05-19T13:49:43;22.40;69.50
25718;DHT22;13574;52.040;5.692;2023-05-19T13:52:08;22.30;69.60
25718;DHT22;13574;52.040;5.692;2023-05-19T13:54:34;22.50;69.80
25718;DHT22;13574;52.040;5.692;2023-05-19T13:57:00;22.30;69.10
25718;DHT22;13574;52.040;5.692;2023-05-19T13:59:25;22.30;69.30
25718;DHT22;13574;52.040;5.692;2023-05-19T14:01:51;22.20;69.90
25718;DHT22;13574;52.040;5.692;2023-05-19T14:04:17;22.20;70.00
25718;DHT22;13574;52.040;5.692;2023-05-19T14:06:45;21.60;69.80
25718;DHT22;13574;52.040;5.692;2023-05-19T14:09:11;21.80;69.50
25718;DHT22;13574;52.040;5.692;2023-05-19T14:11:37;22.00;69.60
25718;DHT22;13574;52.040;5.692;2023-05-19T14:14:03;22.30;68.80
25718;DHT22;13574;52.040;5.692;2023-05-19T14:16:29;22.70;68.50
25718;DHT22;13574;52.040;5.692;2023-05-19T14:18:55;22.80;67.80
25718;DHT22;13574;52.040;5.692;2023-05-19T14:21:21;22.70;69.70
25718;DHT22;13574;52.040;5.692;2023-05-19T14:23:47;22.20;70.30
25718;DHT22;13574;52.040;5.692;2023-05-19T14:26:13;22.30;71.60
25718;DHT22;13574;52.040;5.692;2023-05-19T14:28:38;22.40;70.80
25718;DHT22;13574;52.040;5.692;2023-05-19T14:31:04;22.30;70.70
25718;DHT22;13574;52.040;5.692;2023-05-19T14:33:31;22.30;70.00
25718;DHT22;13574;52.040;5.692;2023-05-19T14:35:56;22.30;70.20
25718;DHT22;13574;52.040;5.692;2023-05-19T14:38:25;22.80;69.40
25718;DHT22;13574;52.040;5.692;2023-05-19T14:40:51;23.30;69.70
25718;DHT22;13574;52.040;5.692;2023-05-19T14:43:17;23.40;69.00
25718;DHT22;13574;52.040;5.692;2023-05-19T14:45:43;23.10;69.30
25718;DHT22;13574;52.040;5.692;2023-05-19T14:48:09;22.90;69.80
25718;DHT22;13574;52.040;5.692;2023-05-19T14:50:38;22.50;71.60
25718;DHT22;13574;52.040;5.692;2023-05-19T14:53:04;22.40;70.60
25718;DHT22;13574;52.040;5.692;2023-05-19T14:55:29;22.40;69.90
25718;DHT22;13574;52.040;5.692;2023-05-19T14:57:55;22.30;69.70
25718;DHT22;13574;52.040;5.692;2023-05-19T15:00:21;22.30;69.60
25718;DHT22;13574;52.040;5.692;2023-05-19T15:02:47;22.30;70.00
25718;DHT22;13574;52.040;5.692;2023-05-19T15:05:14;21.60;71.30
25718;DHT22;13574;52.040;5.692;2023-05-19T15:07:40;21.80;70.30
25718;DHT22;13574;52.040;5.692;2023-05-19T15:10:06;22.20;70.80
25718;DHT22;13574;52.040;5.692;2023-05-19T15:12:32;22.30;70.10
25718;DHT22;13574;52.040;5.692;2023-05-19T15:14:58;22.00;70.20
25718;DHT22;13574;52.040;5.692;2023-05-19T15:17:23;22.00;71.00
25718;DHT22;13574;52.040;5.692;2023-05-19T15:19:54;22.10;70.70
25718;DHT22;13574;52.040;5.692;2023-05-19T15:22:20;22.20;70.70
25718;DHT22;13574;52.040;5.692;2023-05-19T15:24:46;22.30;70.20
25718;DHT22;13574;52.040;5.692;2023-05-19T15:27:11;22.40;70.90
25718;DHT22;13574;52.040;5.692;2023-05-19T15:29:37;22.60;69.60
25718;DHT22;13574;52.040;5.692;2023-05-19T15:32:03;22.20;69.60
25718;DHT22;13574;52.040;5.692;2023-05-19T15:34:28;22.60;68.80
25718;DHT22;13574;52.040;5.692;2023-05-19T15:36:54;22.70;68.70
25718;DHT22;13574;52.040;5.692;2023-05-19T15:39:20;22.70;69.10
25718;DHT22;13574;52.040;5.692;2023-05-19T15:41:45;22.90;69.10
25718;DHT22;13574;52.040;5.692;2023-05-19T15:44:11;22.60;68.50
25718;DHT22;13574;52.040;5.692;2023-05-19T15:46:37;23.00;69.10
25718;DHT22;13574;52.040;5.692;2023-05-19T15:49:02;23.10;68.90
25718;DHT22;13574;52.040;5.692;2023-05-19T15:51:28;23.00;68.40
25718;DHT22;13574;52.040;5.692;2023-05-19T15:53:54;22.70;68.40
25718;DHT22;13574;52.040;5.692;2023-05-19T15:56:20;22.20;68.40
25718;DHT22;13574;52.040;5.692;2023-05-19T15:58:46;21.90;69.30
25718;DHT22;13574;52.040;5.692;2023-05-19T16:01:12;22.30;69.10
25718;DHT22;13574;52.040;5.692;2023-05-19T16:03:37;22.30;69.60
25718;DHT22;13574;52.040;5.692;2023-05-19T16:06:03;22.50;69.20
25718;DHT22;13574;52.040;5.692;2023-05-19T16:08:30;22.30;68.40